Aviation Digital Data Service (ADDS)

Output produced by METARs form (0159 UTC 22 January 2020)
found at http://aviationweather.gov/metar/data/
 
METAR text: EYKA 220150Z 25015KT 9000 -DZ OVC008 05/04 Q1013
Conditions at: EYKA (KAUNAS , LT) observed 0150 UTC 22 January 2020
Temperature: 5.0°C (41°F)
Dewpoint: 4.0°C (39°F) [RH = 93%]
Pressure (altimeter): 29.91 inches Hg (1013.0 mb)
Winds: from the WSW (250 degrees) at 17 MPH (15 knots; 7.7 m/s)
Visibility: 6 miles ( 9 km)
Ceiling: 800 feet AGL
Clouds: overcast cloud deck at 800 feet AGL
Weather: -DZ  (light drizzle)

METAR text: EYKA 220120Z AUTO 25014KT 6000 -UP OVC006/// 05/04 Q1014
Conditions at: EYKA (KAUNAS , LT) observed 0120 UTC 22 January 2020
Temperature: 5.0°C (41°F)
Dewpoint: 4.0°C (39°F) [RH = 93%]
Pressure (altimeter): 29.94 inches Hg (1014.0 mb)
Winds: from the WSW (250 degrees) at 16 MPH (14 knots; 7.2 m/s)
Visibility: 4 miles ( 6 km)
Ceiling: 600 feet AGL
Clouds: overcast cloud deck at 600 feet AGL
Weather: UP  (unknown precipitation)

METAR text: EYKA 220050Z AUTO 25015KT 3200 -UP OVC006/// 05/04 Q1015
Conditions at: EYKA (KAUNAS , LT) observed 0050 UTC 22 January 2020
Temperature: 5.0°C (41°F)
Dewpoint: 4.0°C (39°F) [RH = 93%]
Pressure (altimeter): 29.97 inches Hg (1015.0 mb)
Winds: from the WSW (250 degrees) at 17 MPH (15 knots; 7.7 m/s)
Visibility: 1.99 miles (3.20 km)
Ceiling: 600 feet AGL
Clouds: overcast cloud deck at 600 feet AGL
Weather: UP  (unknown precipitation)

METAR text: EYKA 220020Z AUTO 25012KT 7000 OVC006/// 05/04 Q1015
Conditions at: EYKA (KAUNAS , LT) observed 0020 UTC 22 January 2020
Temperature: 5.0°C (41°F)
Dewpoint: 4.0°C (39°F) [RH = 93%]
Pressure (altimeter): 29.97 inches Hg (1015.0 mb)
Winds: from the WSW (250 degrees) at 14 MPH (12 knots; 6.2 m/s)
Visibility: 4 miles ( 7 km)
Ceiling: 600 feet AGL
Clouds: overcast cloud deck at 600 feet AGL
Weather: no significant weather observed at this time

Forecast for: EYKA (KAUNAS , LT)
Text: TAF EYKA 212306Z 2200/2224 27016G26KT 5000 RA BR OVC010
Forecast period: 0000 to 0700 UTC 22 January 2020
Forecast type: FROM: standard forecast or significant change
Winds: from the W (270 degrees) at 18 MPH (16 knots; 8.2 m/s)
gusting to 30 MPH (26 knots; 13.4 m/s)
Visibility: 3 miles (5 km)
Ceiling: 1000 feet AGL
Clouds: overcast cloud deck at 1000 feet AGL
Weather: RA BR  (moderate rain, mist)
Text: TEMPO 2200/2207 3000 OVC005
Forecast period: 0000 to 0700 UTC 22 January 2020
Forecast type: TEMPORARY: The following changes expected for less than half the time period
Visibility: 1.86 miles (2.99 km)
Ceiling: 500 feet AGL
Clouds: overcast cloud deck at 500 feet AGL
Weather: no significant weather forecast for this period
Text: BECMG 2207/2209 33018G30KT 8000 BKN025
Forecast period: 0700 to 1800 UTC 22 January 2020
Forecast type: BECOMING: Conditions expected to become as follows by 0900 UTC 22 January 2020
Winds: from the NNW (330 degrees) at 21 MPH (18 knots; 9.3 m/s)
gusting to 34 MPH (30 knots; 15.4 m/s)
Visibility: 5 miles (8 km)
Ceiling: 2500 feet AGL
Clouds: broken clouds at 2500 feet AGL
Weather: RA BR  (moderate rain, mist)
Text: TEMPO 2209/2218 5000 SHRASN SCT005 BKN015CB
Forecast period: 0900 to 1800 UTC 22 January 2020
Forecast type: TEMPORARY: The following changes expected for less than half the time period
Visibility: 3 miles (5 km)
Ceiling: 1500 feet AGL
Clouds: scattered clouds at 500 feet AGL
broken clouds at 1500 feet AGL
Weather: SHRA SHSN  (rain showers, snow showers)
Text: BECMG 2218/2219 31012KT
Forecast period: 1800 UTC 22 January 2020 to 0000 UTC 23 January 2020
Forecast type: BECOMING: Conditions expected to become as follows by 1900 UTC 22 January 2020
Winds: from the NW (310 degrees) at 14 MPH (12 knots; 6.2 m/s)
Visibility: 5 miles (8 km)
Ceiling: 2500 feet AGL
Clouds: broken clouds at 2500 feet AGL
Weather: RA BR  (moderate rain, mist)